createdAt,value
2017-04-03T00:00:03.466Z,847.91
2017-04-03T00:00:07.665Z,847.91
2017-04-03T00:00:11.873Z,847.88
2017-04-03T00:00:16.181Z,847.9
2017-04-03T00:00:20.612Z,847.88
2017-04-03T00:00:25.035Z,847.91
2017-04-03T00:00:29.466Z,847.93
2017-04-03T00:00:33.692Z,847.88
2017-04-03T00:00:38.121Z,847.9
2017-04-03T00:00:42.546Z,847.88
2017-04-03T00:00:46.981Z,847.89
2017-04-03T00:00:51.339Z,847.9
2017-04-03T00:00:55.771Z,847.92
2017-04-03T00:01:00.201Z,847.88
2017-04-03T00:01:04.886Z,847.89
2017-04-03T00:01:09.318Z,847.87
2017-04-03T00:01:13.748Z,847.89
2017-04-03T00:01:18.182Z,847.88
2017-04-03T00:01:22.612Z,847.88
2017-04-03T00:01:26.929Z,847.87
2017-04-03T00:01:31.380Z,847.89
2017-04-03T00:01:35.690Z,847.84
2017-04-03T00:01:40.120Z,847.84
2017-04-03T00:01:44.551Z,847.84
2017-04-03T00:01:48.974Z,847.86
2017-04-03T00:01:53.281Z,847.83
2017-04-03T00:01:57.593Z,847.85
2017-04-03T00:02:02.019Z,847.87
2017-04-03T00:02:06.093Z,847.87
2017-04-03T00:02:10.517Z,847.83
2017-04-03T00:02:14.947Z,847.84
2017-04-03T00:02:19.294Z,847.84
2017-04-03T00:02:23.602Z,847.85
2017-04-03T00:02:28.034Z,847.78
2017-04-03T00:02:32.241Z,847.76
2017-04-03T00:02:36.677Z,847.79
2017-04-03T00:02:41.104Z,847.79
2017-04-03T00:02:45.530Z,847.84
2017-04-03T00:02:49.843Z,847.83
2017-04-03T00:02:54.158Z,847.84
2017-04-03T00:02:58.468Z,847.81
2017-04-03T00:03:02.943Z,847.82
2017-04-03T00:03:07.257Z,847.78
2017-04-03T00:03:11.735Z,847.83
2017-04-03T00:03:15.923Z,847.81
2017-04-03T00:03:20.351Z,847.79
2017-04-03T00:03:24.805Z,847.8
2017-04-03T00:03:29.120Z,847.81
2017-04-03T00:03:33.551Z,847.82
2017-04-03T00:03:37.979Z,847.82
2017-04-03T00:03:42.406Z,847.83
2017-04-03T00:03:46.876Z,847.8
2017-04-03T00:03:51.301Z,847.79
2017-04-03T00:03:55.608Z,847.77
2017-04-03T00:04:00.039Z,847.81
2017-04-03T00:04:04.465Z,847.73
2017-04-03T00:04:08.774Z,847.73
2017-04-03T00:04:13.081Z,847.73
2017-04-03T00:04:17.395Z,847.78
2017-04-03T00:04:21.820Z,847.74
2017-04-03T00:04:26.251Z,847.78
2017-04-03T00:04:30.693Z,847.79
2017-04-03T00:04:35.124Z,847.78
2017-04-03T00:04:39.551Z,847.79
2017-04-03T00:04:43.974Z,847.75
2017-04-03T00:04:48.403Z,847.73
2017-04-03T00:04:52.846Z,847.8
2017-04-03T00:04:57.080Z,847.79
2017-04-03T00:05:01.506Z,847.78
2017-04-03T00:05:05.815Z,847.81
2017-04-03T00:05:10.240Z,847.77
2017-04-03T00:05:14.718Z,847.77
2017-04-03T00:05:19.033Z,847.75
2017-04-03T00:05:23.355Z,847.73
2017-04-03T00:05:27.445Z,847.75
2017-04-03T00:05:31.876Z,847.75
2017-04-03T00:05:36.067Z,847.75
2017-04-03T00:05:40.375Z,847.76
2017-04-03T00:05:44.464Z,847.72
2017-04-03T00:05:48.693Z,847.77
2017-04-03T00:05:53.004Z,847.75
2017-04-03T00:05:57.203Z,847.74
2017-04-03T00:06:01.518Z,847.73
2017-04-03T00:06:05.829Z,847.74
2017-04-03T00:06:09.907Z,847.71
2017-04-03T00:06:14.381Z,847.75
2017-04-03T00:06:18.576Z,847.75
2017-04-03T00:06:22.772Z,847.77
2017-04-03T00:06:26.968Z,847.74
2017-04-03T00:06:31.291Z,847.72
2017-04-03T00:06:35.606Z,847.72
2017-04-03T00:06:40.034Z,847.73
2017-04-03T00:06:44.466Z,847.73
2017-04-03T00:06:48.894Z,847.72
2017-04-03T00:06:53.321Z,847.74
2017-04-03T00:06:57.292Z,847.72
2017-04-03T00:07:01.603Z,847.72
2017-04-03T00:07:05.928Z,847.72
2017-04-03T00:07:10.351Z,847.72
2017-04-03T00:07:14.783Z,847.64
2017-04-03T00:07:18.981Z,847.64
2017-04-03T00:07:23.409Z,847.66
2017-04-03T00:07:27.602Z,847.67
2017-04-03T00:07:31.903Z,847.67
2017-04-03T00:07:36.332Z,847.71
2017-04-03T00:07:40.769Z,847.69
2017-04-03T00:07:45.004Z,847.71
2017-04-03T00:07:49.196Z,847.7
2017-04-03T00:07:53.504Z,847.69
2017-04-03T00:07:57.941Z,847.69
2017-04-03T00:08:01.911Z,847.7
2017-04-03T00:08:05.981Z,847.71
2017-04-03T00:08:10.423Z,847.68
2017-04-03T00:08:14.751Z,847.68
2017-04-03T00:08:19.070Z,847.71
2017-04-03T00:08:23.492Z,847.68
2017-04-03T00:08:27.812Z,847.68
2017-04-03T00:08:32.251Z,847.66
2017-04-03T00:08:36.559Z,847.65
2017-04-03T00:08:40.869Z,847.66
2017-04-03T00:08:45.188Z,847.66
2017-04-03T00:08:49.609Z,847.64
2017-04-03T00:08:53.691Z,847.66
2017-04-03T00:08:58.120Z,847.66
2017-04-03T00:09:02.757Z,847.64
2017-04-03T00:09:07.064Z,847.66
2017-04-03T00:09:11.256Z,847.64
2017-04-03T00:09:15.568Z,847.66
2017-04-03T00:09:20.039Z,847.61
2017-04-03T00:09:24.476Z,847.66
2017-04-03T00:09:28.900Z,847.65
2017-04-03T00:09:33.106Z,847.61
2017-04-03T00:09:37.413Z,847.63
2017-04-03T00:09:41.838Z,847.66
2017-04-03T00:09:46.158Z,847.58
2017-04-03T00:09:50.591Z,847.6
2017-04-03T00:09:54.796Z,847.65
2017-04-03T00:09:59.001Z,847.57
2017-04-03T00:10:03.358Z,847.64
2017-04-03T00:10:07.552Z,847.65
2017-04-03T00:10:11.755Z,847.64
2017-04-03T00:10:16.064Z,847.63
2017-04-03T00:10:20.370Z,847.61
2017-04-03T00:10:24.451Z,847.61
2017-04-03T00:10:28.768Z,847.58
2017-04-03T00:10:32.962Z,847.64
2017-04-03T00:10:37.386Z,847.63
2017-04-03T00:10:41.710Z,847.61
2017-04-03T00:10:45.912Z,847.6
2017-04-03T00:10:50.225Z,847.62
2017-04-03T00:10:54.537Z,847.62
2017-04-03T00:10:58.775Z,847.62
2017-04-03T00:11:03.306Z,847.57
2017-04-03T00:11:07.611Z,847.56
2017-04-03T00:11:11.932Z,847.61
2017-04-03T00:11:16.279Z,847.63
2017-04-03T00:11:20.712Z,847.6
2017-04-03T00:11:25.016Z,847.61
2017-04-03T00:11:29.438Z,847.57
2017-04-03T00:11:33.750Z,847.6
2017-04-03T00:11:38.183Z,847.6
2017-04-03T00:11:42.608Z,847.58
2017-04-03T00:11:47.032Z,847.57
2017-04-03T00:11:51.340Z,847.58
2017-04-03T00:11:55.775Z,847.51
2017-04-03T00:12:00.085Z,847.54
2017-04-03T00:12:04.396Z,847.54
2017-04-03T00:12:08.592Z,847.57
2017-04-03T00:12:12.908Z,847.54
2017-04-03T00:12:17.336Z,847.52
2017-04-03T00:12:21.762Z,847.57
2017-04-03T00:12:26.071Z,847.52
2017-04-03T00:12:30.495Z,847.51
2017-04-03T00:12:34.921Z,847.54
2017-04-03T00:12:39.230Z,847.49
2017-04-03T00:12:43.655Z,847.51
2017-04-03T00:12:47.858Z,847.54
2017-04-03T00:12:52.297Z,847.56
2017-04-03T00:12:56.601Z,847.51
2017-04-03T00:13:00.919Z,847.53
2017-04-03T00:13:05.348Z,847.55
2017-04-03T00:13:09.771Z,847.52
2017-04-03T00:13:14.377Z,847.52
2017-04-03T00:13:18.692Z,847.52
2017-04-03T00:13:23.115Z,847.51
2017-04-03T00:13:27.536Z,847.56
2017-04-03T00:13:31.840Z,847.54
2017-04-03T00:13:36.288Z,847.51
2017-04-03T00:13:40.709Z,847.51
2017-04-03T00:13:44.901Z,847.51
2017-04-03T00:13:49.332Z,847.52
2017-04-03T00:13:53.760Z,847.5
2017-04-03T00:13:58.076Z,847.49
2017-04-03T00:14:02.152Z,847.48
2017-04-03T00:14:06.462Z,847.52
2017-04-03T00:14:10.887Z,847.5
2017-04-03T00:14:15.321Z,847.49
2017-04-03T00:14:19.631Z,847.49
2017-04-03T00:14:24.060Z,847.49
2017-04-03T00:14:28.485Z,847.45
2017-04-03T00:14:32.918Z,847.44
2017-04-03T00:14:37.364Z,847.47
2017-04-03T00:14:41.783Z,847.45
2017-04-03T00:14:46.091Z,847.47
2017-04-03T00:14:50.562Z,847.48
2017-04-03T00:14:54.995Z,847.44
2017-04-03T00:14:58.954Z,847.47
2017-04-03T00:15:03.308Z,847.45
2017-04-03T00:15:07.738Z,847.48
2017-04-03T00:15:12.162Z,847.44
2017-04-03T00:15:16.597Z,847.42
2017-04-03T00:15:21.022Z,847.43
2017-04-03T00:15:25.330Z,847.38
2017-04-03T00:15:29.763Z,847.43
2017-04-03T00:15:34.198Z,847.45
2017-04-03T00:15:38.637Z,847.47
2017-04-03T00:15:43.061Z,847.46
2017-04-03T00:15:47.378Z,847.39
2017-04-03T00:15:51.573Z,847.38
2017-04-03T00:15:56.005Z,847.41
2017-04-03T00:16:00.194Z,847.37
2017-04-03T00:16:04.555Z,847.38
2017-04-03T00:16:08.633Z,847.44
2017-04-03T00:16:13.061Z,847.4
2017-04-03T00:16:17.487Z,847.42
2017-04-03T00:16:21.925Z,847.41
2017-04-03T00:16:26.284Z,847.4
2017-04-03T00:16:30.711Z,847.41
2017-04-03T00:16:35.137Z,847.42
2017-04-03T00:16:39.567Z,847.42
2017-04-03T00:16:43.878Z,847.39
2017-04-03T00:16:48.189Z,847.4
2017-04-03T00:16:52.618Z,847.4
2017-04-03T00:16:57.069Z,847.39
2017-04-03T00:17:01.701Z,847.39
2017-04-03T00:17:05.771Z,847.4
2017-04-03T00:17:10.202Z,847.39
2017-04-03T00:17:14.635Z,847.39
2017-04-03T00:17:18.832Z,847.35
2017-04-03T00:17:23.260Z,847.37
2017-04-03T00:17:27.571Z,847.37
2017-04-03T00:17:31.883Z,847.4
2017-04-03T00:17:36.309Z,847.38
2017-04-03T00:17:40.734Z,847.36
2017-04-03T00:17:45.038Z,847.37
2017-04-03T00:17:49.467Z,847.39
2017-04-03T00:17:53.894Z,847.39
2017-04-03T00:17:58.197Z,847.4
2017-04-03T00:18:02.620Z,847.39
2017-04-03T00:18:06.807Z,847.35
2017-04-03T00:18:11.468Z,847.38
2017-04-03T00:18:15.890Z,847.35
2017-04-03T00:18:20.199Z,847.32
2017-04-03T00:18:24.505Z,847.36
2017-04-03T00:18:28.942Z,847.39
2017-04-03T00:18:33.371Z,847.34
2017-04-03T00:18:37.795Z,847.35
2017-04-03T00:18:42.229Z,847.34
2017-04-03T00:18:46.666Z,847.36
2017-04-03T00:18:51.096Z,847.36
2017-04-03T00:18:55.527Z,847.33
2017-04-03T00:18:59.997Z,847.33
2017-04-03T00:19:04.423Z,847.34
2017-04-03T00:19:08.868Z,847.35
2017-04-03T00:19:13.178Z,847.34
2017-04-03T00:19:17.603Z,847.31
2017-04-03T00:19:21.919Z,847.31
2017-04-03T00:19:26.225Z,847.34
2017-04-03T00:19:30.646Z,847.37
2017-04-03T00:19:34.959Z,847.35
2017-04-03T00:19:39.395Z,847.37
2017-04-03T00:19:43.754Z,847.31
2017-04-03T00:19:48.182Z,847.32
2017-04-03T00:19:52.495Z,847.33
2017-04-03T00:19:56.822Z,847.32
2017-04-03T00:20:01.132Z,847.28
2017-04-03T00:20:05.582Z,847.31
2017-04-03T00:20:10.049Z,847.31
2017-04-03T00:20:14.484Z,847.27
2017-04-03T00:20:18.915Z,847.32
2017-04-03T00:20:23.342Z,847.32
2017-04-03T00:20:27.818Z,847.29
2017-04-03T00:20:32.251Z,847.32
2017-04-03T00:20:36.695Z,847.3
2017-04-03T00:20:41.055Z,847.29
2017-04-03T00:20:45.372Z,847.31
2017-04-03T00:20:49.451Z,847.28
2017-04-03T00:20:53.876Z,847.3
2017-04-03T00:20:58.193Z,847.27
2017-04-03T00:21:02.622Z,847.27
2017-04-03T00:21:06.817Z,847.25
2017-04-03T00:21:11.247Z,847.27
2017-04-03T00:21:15.678Z,847.29
2017-04-03T00:21:20.107Z,847.27
2017-04-03T00:21:24.415Z,847.25
2017-04-03T00:21:28.846Z,847.31
2017-04-03T00:21:33.285Z,847.31
2017-04-03T00:21:37.713Z,847.31
2017-04-03T00:21:42.143Z,847.3
2017-04-03T00:21:46.456Z,847.31
2017-04-03T00:21:50.769Z,847.3
2017-04-03T00:21:55.193Z,847.31
2017-04-03T00:21:59.631Z,847.26
2017-04-03T00:22:04.107Z,847.28
2017-04-03T00:22:08.420Z,847.27
2017-04-03T00:22:12.736Z,847.26
2017-04-03T00:22:17.170Z,847.29
2017-04-03T00:22:21.597Z,847.26
2017-04-03T00:22:26.030Z,847.28
2017-04-03T00:22:30.455Z,847.31
2017-04-03T00:22:34.765Z,847.26
2017-04-03T00:22:39.250Z,847.27
2017-04-03T00:22:43.554Z,847.26
2017-04-03T00:22:47.747Z,847.23
2017-04-03T00:22:52.169Z,847.26
2017-04-03T00:22:56.479Z,847.25
2017-04-03T00:23:00.908Z,847.24
2017-04-03T00:23:05.210Z,847.23
2017-04-03T00:23:09.634Z,847.22
2017-04-03T00:23:14.068Z,847.24
2017-04-03T00:23:18.497Z,847.23
2017-04-03T00:23:22.921Z,847.26
2017-04-03T00:23:27.344Z,847.23
2017-04-03T00:23:31.774Z,847.22
2017-04-03T00:23:36.128Z,847.19
2017-04-03T00:23:40.482Z,847.21
2017-04-03T00:23:44.673Z,847.19
2017-04-03T00:23:49.107Z,847.19
2017-04-03T00:23:53.584Z,847.2
2017-04-03T00:23:58.010Z,847.21
2017-04-03T00:24:02.687Z,847.19
2017-04-03T00:24:06.889Z,847.2
2017-04-03T00:24:11.232Z,847.22
2017-04-03T00:24:15.656Z,847.21
2017-04-03T00:24:20.083Z,847.19
2017-04-03T00:24:24.395Z,847.21
2017-04-03T00:24:28.708Z,847.16
2017-04-03T00:24:33.019Z,847.19
2017-04-03T00:24:37.445Z,847.17
2017-04-03T00:24:41.877Z,847.2
2017-04-03T00:24:46.307Z,847.18
2017-04-03T00:24:50.789Z,847.19
2017-04-03T00:24:55.222Z,847.18
2017-04-03T00:24:59.651Z,847.17
2017-04-03T00:25:03.992Z,847.19
2017-04-03T00:25:08.429Z,847.14
2017-04-03T00:25:12.739Z,847.15
2017-04-03T00:25:17.044Z,847.1
2017-04-03T00:25:21.357Z,847.14
2017-04-03T00:25:25.425Z,847.15
2017-04-03T00:25:29.740Z,847.15
2017-04-03T00:25:34.053Z,847.12
2017-04-03T00:25:38.478Z,847.15
2017-04-03T00:25:42.901Z,847.14
2017-04-03T00:25:47.215Z,847.13
2017-04-03T00:25:51.701Z,847.12
2017-04-03T00:25:56.128Z,847.12
2017-04-03T00:26:00.443Z,847.08
2017-04-03T00:26:05.018Z,847.13
2017-04-03T00:26:09.221Z,847.1
2017-04-03T00:26:13.531Z,847.11
2017-04-03T00:26:17.958Z,847.12
2017-04-03T00:26:22.389Z,847.1
2017-04-03T00:26:26.816Z,847.07
2017-04-03T00:26:31.121Z,847.11
2017-04-03T00:26:35.423Z,847.1
2017-04-03T00:26:39.612Z,847.09
2017-04-03T00:26:44.040Z,847.08
2017-04-03T00:26:48.350Z,847.05
2017-04-03T00:26:52.778Z,847.07
2017-04-03T00:26:57.206Z,847.06
2017-04-03T00:27:01.647Z,847.07
2017-04-03T00:27:06.121Z,847.01
2017-04-03T00:27:10.547Z,847.02
2017-04-03T00:27:14.856Z,847.02
2017-04-03T00:27:19.328Z,847.03
2017-04-03T00:27:23.631Z,847.01
2017-04-03T00:27:28.057Z,847
2017-04-03T00:27:32.536Z,847
2017-04-03T00:27:36.969Z,846.99
2017-04-03T00:27:41.393Z,847.01
2017-04-03T00:27:45.714Z,847.01
2017-04-03T00:27:50.026Z,847.02
2017-04-03T00:27:54.448Z,847.01
2017-04-03T00:27:58.874Z,847
2017-04-03T00:28:03.387Z,846.97
2017-04-03T00:28:07.695Z,846.93
2017-04-03T00:28:11.882Z,846.97
2017-04-03T00:28:16.320Z,846.96
2017-04-03T00:28:20.796Z,846.97
2017-04-03T00:28:25.108Z,846.95
2017-04-03T00:28:29.307Z,846.95
2017-04-03T00:28:33.738Z,846.97
2017-04-03T00:28:38.046Z,846.95
2017-04-03T00:28:42.372Z,846.93
2017-04-03T00:28:46.845Z,846.92
2017-04-03T00:28:51.266Z,846.97
2017-04-03T00:28:55.587Z,846.94
2017-04-03T00:29:00.020Z,846.95
2017-04-03T00:29:04.633Z,846.92
2017-04-03T00:29:09.058Z,846.89
2017-04-03T00:29:13.257Z,846.94
2017-04-03T00:29:17.680Z,846.94
2017-04-03T00:29:22.110Z,846.92
2017-04-03T00:29:26.533Z,846.92
2017-04-03T00:29:30.960Z,846.91
2017-04-03T00:29:35.148Z,846.91
2017-04-03T00:29:39.580Z,846.94
2017-04-03T00:29:44.007Z,846.9
2017-04-03T00:29:48.316Z,846.92
2017-04-03T00:29:52.745Z,846.9
2017-04-03T00:29:57.168Z,846.89
2017-04-03T00:30:01.358Z,846.83
2017-04-03T00:30:05.556Z,846.84
2017-04-03T00:30:09.875Z,846.9
2017-04-03T00:30:14.063Z,846.9
2017-04-03T00:30:18.489Z,846.87
2017-04-03T00:30:22.919Z,846.88
2017-04-03T00:30:27.372Z,846.87
2017-04-03T00:30:31.567Z,846.84
2017-04-03T00:30:35.878Z,846.87
2017-04-03T00:30:40.315Z,846.88
2017-04-03T00:30:44.743Z,846.86
2017-04-03T00:30:49.049Z,846.85
2017-04-03T00:30:53.476Z,846.86
2017-04-03T00:30:57.794Z,846.84
2017-04-03T00:31:02.227Z,846.86
2017-04-03T00:31:06.656Z,846.83
2017-04-03T00:31:11.080Z,846.82
2017-04-03T00:31:15.283Z,846.81
2017-04-03T00:31:19.594Z,846.79
2017-04-03T00:31:23.673Z,846.81
2017-04-03T00:31:27.989Z,846.83
2017-04-03T00:31:32.420Z,846.85
2017-04-03T00:31:36.849Z,846.82
2017-04-03T00:31:41.273Z,846.83
2017-04-03T00:31:45.701Z,846.77
2017-04-03T00:31:50.160Z,846.82
2017-04-03T00:31:54.583Z,846.8
2017-04-03T00:31:59.014Z,846.78
2017-04-03T00:32:03.456Z,846.76
2017-04-03T00:32:07.649Z,846.78
2017-04-03T00:32:11.727Z,846.8
2017-04-03T00:32:16.159Z,846.79
2017-04-03T00:32:20.591Z,846.79
2017-04-03T00:32:25.016Z,846.81
2017-04-03T00:32:29.210Z,846.79
2017-04-03T00:32:33.639Z,846.78
2017-04-03T00:32:38.066Z,846.78
2017-04-03T00:32:42.502Z,846.78
2017-04-03T00:32:46.819Z,846.77
2017-04-03T00:32:51.015Z,846.77
2017-04-03T00:32:55.444Z,846.76
2017-04-03T00:32:59.908Z,846.79
2017-04-03T00:33:04.476Z,846.72
2017-04-03T00:33:08.800Z,846.77
2017-04-03T00:33:12.992Z,846.77
2017-04-03T00:33:17.231Z,846.76
2017-04-03T00:33:21.551Z,846.77
2017-04-03T00:33:26.004Z,846.72
2017-04-03T00:33:30.429Z,846.77
2017-04-03T00:33:34.854Z,846.71
2017-04-03T00:33:39.279Z,846.72
2017-04-03T00:33:43.587Z,846.76
2017-04-03T00:33:47.895Z,846.75
2017-04-03T00:33:52.213Z,846.73
2017-04-03T00:33:56.640Z,846.75
2017-04-03T00:34:00.984Z,846.71
2017-04-03T00:34:05.363Z,846.74
2017-04-03T00:34:09.672Z,846.75
2017-04-03T00:34:13.986Z,846.74
2017-04-03T00:34:18.339Z,846.77
2017-04-03T00:34:22.765Z,846.72
2017-04-03T00:34:27.075Z,846.71
2017-04-03T00:34:31.380Z,846.73
2017-04-03T00:34:35.822Z,846.74
2017-04-03T00:34:40.259Z,846.72
2017-04-03T00:34:44.686Z,846.72
2017-04-03T00:34:49.116Z,846.73
2017-04-03T00:34:53.550Z,846.71
2017-04-03T00:34:57.854Z,846.67
2017-04-03T00:35:02.282Z,846.74
2017-04-03T00:35:06.479Z,846.71
2017-04-03T00:35:10.821Z,846.73
2017-04-03T00:35:15.251Z,846.69
2017-04-03T00:35:19.556Z,846.69
2017-04-03T00:35:23.990Z,846.7
2017-04-03T00:35:28.468Z,846.68
2017-04-03T00:35:32.899Z,846.71
2017-04-03T00:35:37.327Z,846.69
2017-04-03T00:35:41.757Z,846.7
2017-04-03T00:35:46.189Z,846.72
2017-04-03T00:35:50.620Z,846.6
2017-04-03T00:35:55.059Z,846.64
2017-04-03T00:35:59.249Z,846.65
2017-04-03T00:36:03.670Z,846.69
2017-04-03T00:36:07.978Z,846.68
2017-04-03T00:36:12.295Z,846.65
2017-04-03T00:36:16.723Z,846.66
2017-04-03T00:36:21.146Z,846.59
2017-04-03T00:36:25.574Z,846.61
2017-04-03T00:36:30.007Z,846.69
2017-04-03T00:36:34.441Z,846.66
2017-04-03T00:36:38.749Z,846.65
2017-04-03T00:36:43.177Z,846.64
2017-04-03T00:36:47.618Z,846.66
2017-04-03T00:36:52.056Z,846.65
2017-04-03T00:36:56.491Z,846.61
2017-04-03T00:37:00.802Z,846.59
2017-04-03T00:37:05.225Z,846.58
2017-04-03T00:37:09.650Z,846.61
2017-04-03T00:37:13.852Z,846.62
2017-04-03T00:37:18.162Z,846.63
2017-04-03T00:37:22.473Z,846.61
2017-04-03T00:37:26.784Z,846.63
2017-04-03T00:37:31.211Z,846.63
2017-04-03T00:37:35.522Z,846.6
2017-04-03T00:37:39.960Z,846.62
2017-04-03T00:37:44.268Z,846.6
2017-04-03T00:37:48.576Z,846.63
2017-04-03T00:37:52.774Z,846.62
2017-04-03T00:37:57.239Z,846.61
2017-04-03T00:38:01.663Z,846.6
2017-04-03T00:38:06.397Z,846.62
2017-04-03T00:38:10.708Z,846.59
2017-04-03T00:38:15.135Z,846.58
2017-04-03T00:38:19.443Z,846.6
2017-04-03T00:38:23.796Z,846.6
2017-04-03T00:38:28.220Z,846.6
2017-04-03T00:38:32.528Z,846.58
2017-04-03T00:38:36.724Z,846.61
2017-04-03T00:38:41.152Z,846.62
2017-04-03T00:38:45.459Z,846.62
2017-04-03T00:38:49.888Z,846.58
2017-04-03T00:38:54.115Z,846.61
2017-04-03T00:38:58.540Z,846.6
2017-04-03T00:39:02.855Z,846.59
2017-04-03T00:39:07.052Z,846.61
2017-04-03T00:39:11.361Z,846.59
2017-04-03T00:39:15.671Z,846.6
2017-04-03T00:39:20.095Z,846.61
2017-04-03T00:39:24.167Z,846.61
2017-04-03T00:39:28.477Z,846.6
2017-04-03T00:39:32.910Z,846.63
2017-04-03T00:39:37.384Z,846.61
2017-04-03T00:39:41.691Z,846.62
2017-04-03T00:39:45.886Z,846.63
2017-04-03T00:39:50.081Z,846.61
2017-04-03T00:39:54.522Z,846.58
2017-04-03T00:39:58.839Z,846.61
2017-04-03T00:40:03.269Z,846.62
2017-04-03T00:40:07.461Z,846.6
2017-04-03T00:40:11.896Z,846.62
2017-04-03T00:40:16.322Z,846.61
2017-04-03T00:40:20.747Z,846.63
2017-04-03T00:40:25.054Z,846.58
2017-04-03T00:40:29.394Z,846.59
2017-04-03T00:40:33.820Z,846.56
2017-04-03T00:40:38.249Z,846.53
2017-04-03T00:40:42.437Z,846.52
2017-04-03T00:40:46.867Z,846.6
2017-04-03T00:40:51.293Z,846.57
2017-04-03T00:40:55.735Z,846.58
2017-04-03T00:41:00.170Z,846.6
2017-04-03T00:41:04.901Z,846.58
2017-04-03T00:41:09.324Z,846.58
2017-04-03T00:41:13.635Z,846.58
2017-04-03T00:41:17.952Z,846.58
2017-04-03T00:41:22.260Z,846.57
2017-04-03T00:41:26.686Z,846.57
2017-04-03T00:41:30.884Z,846.6
2017-04-03T00:41:35.360Z,846.59
2017-04-03T00:41:39.791Z,846.58
2017-04-03T00:41:44.218Z,846.59
2017-04-03T00:41:48.668Z,846.57
2017-04-03T00:41:52.987Z,846.55
2017-04-03T00:41:57.409Z,846.59
2017-04-03T00:42:01.838Z,846.56
2017-04-03T00:42:06.265Z,846.59
2017-04-03T00:42:10.577Z,846.58
2017-04-03T00:42:14.778Z,846.56
2017-04-03T00:42:19.249Z,846.55
2017-04-03T00:42:23.676Z,846.55
2017-04-03T00:42:27.755Z,846.52
2017-04-03T00:42:32.178Z,846.57
2017-04-03T00:42:36.610Z,846.52
2017-04-03T00:42:40.961Z,846.5
2017-04-03T00:42:45.401Z,846.54
2017-04-03T00:42:49.833Z,846.58
2017-04-03T00:42:54.299Z,846.56
2017-04-03T00:42:58.487Z,846.56
2017-04-03T00:43:03.224Z,846.56
2017-04-03T00:43:07.651Z,846.56
2017-04-03T00:43:11.961Z,846.57
2017-04-03T00:43:16.696Z,846.56
2017-04-03T00:43:21.124Z,846.59
2017-04-03T00:43:25.545Z,846.56
2017-04-03T00:43:29.975Z,846.58
2017-04-03T00:43:34.407Z,846.57
2017-04-03T00:43:38.846Z,846.59
2017-04-03T00:43:43.269Z,846.56
2017-04-03T00:43:47.580Z,846.58
2017-04-03T00:43:52.064Z,846.55
2017-04-03T00:43:56.544Z,846.58
2017-04-03T00:44:00.972Z,846.56
2017-04-03T00:44:05.395Z,846.58
2017-04-03T00:44:09.585Z,846.57
2017-04-03T00:44:14.013Z,846.55
2017-04-03T00:44:18.327Z,846.56
2017-04-03T00:44:22.639Z,846.56
2017-04-03T00:44:26.949Z,846.54
2017-04-03T00:44:31.388Z,846.57
2017-04-03T00:44:35.818Z,846.58
2017-04-03T00:44:40.123Z,846.56
2017-04-03T00:44:44.437Z,846.57
2017-04-03T00:44:48.750Z,846.56
2017-04-03T00:44:53.176Z,846.57
2017-04-03T00:44:57.602Z,846.54
2017-04-03T00:45:02.283Z,846.55
2017-04-03T00:45:06.598Z,846.53
2017-04-03T00:45:11.025Z,846.55
2017-04-03T00:45:15.450Z,846.52
2017-04-03T00:45:19.878Z,846.49
2017-04-03T00:45:24.352Z,846.57
2017-04-03T00:45:28.785Z,846.56
2017-04-03T00:45:33.216Z,846.53
2017-04-03T00:45:37.644Z,846.55
2017-04-03T00:45:41.994Z,846.56
2017-04-03T00:45:46.423Z,846.54
2017-04-03T00:45:50.625Z,846.54
2017-04-03T00:45:55.073Z,846.55
2017-04-03T00:45:59.502Z,846.54
2017-04-03T00:46:04.135Z,846.55
2017-04-03T00:46:08.443Z,846.55
2017-04-03T00:46:12.515Z,846.56
2017-04-03T00:46:16.751Z,846.57
2017-04-03T00:46:21.179Z,846.55
2017-04-03T00:46:25.487Z,846.58
2017-04-03T00:46:29.810Z,846.55
2017-04-03T00:46:34.243Z,846.55
2017-04-03T00:46:38.552Z,846.56
2017-04-03T00:46:42.995Z,846.55
2017-04-03T00:46:47.190Z,846.55
2017-04-03T00:46:51.625Z,846.57
2017-04-03T00:46:56.048Z,846.55
2017-04-03T00:47:00.479Z,846.54
2017-04-03T00:47:04.930Z,846.55
2017-04-03T00:47:09.237Z,846.55
2017-04-03T00:47:13.550Z,846.53
2017-04-03T00:47:17.860Z,846.52
2017-04-03T00:47:22.328Z,846.57
2017-04-03T00:47:26.638Z,846.53
2017-04-03T00:47:30.953Z,846.5
2017-04-03T00:47:35.388Z,846.53
2017-04-03T00:47:39.810Z,846.53
2017-04-03T00:47:44.252Z,846.55
2017-04-03T00:47:48.675Z,846.53
2017-04-03T00:47:53.000Z,846.52
2017-04-03T00:47:57.429Z,846.52
2017-04-03T00:48:01.740Z,846.52
2017-04-03T00:48:06.058Z,846.52
2017-04-03T00:48:10.369Z,846.48
2017-04-03T00:48:14.567Z,846.48
2017-04-03T00:48:19.047Z,846.49
2017-04-03T00:48:23.241Z,846.54
2017-04-03T00:48:27.676Z,846.52
2017-04-03T00:48:31.989Z,846.5
2017-04-03T00:48:36.414Z,846.53
2017-04-03T00:48:40.726Z,846.53
2017-04-03T00:48:45.036Z,846.55
2017-04-03T00:48:49.467Z,846.55
2017-04-03T00:48:53.895Z,846.55
2017-04-03T00:48:58.316Z,846.53
2017-04-03T00:49:02.792Z,846.5
2017-04-03T00:49:07.221Z,846.56
2017-04-03T00:49:11.643Z,846.51
2017-04-03T00:49:15.950Z,846.53
2017-04-03T00:49:20.383Z,846.57
2017-04-03T00:49:24.694Z,846.55
2017-04-03T00:49:29.119Z,846.52
2017-04-03T00:49:33.545Z,846.54
2017-04-03T00:49:37.974Z,846.51
2017-04-03T00:49:42.418Z,846.51
2017-04-03T00:49:46.737Z,846.47
2017-04-03T00:49:51.211Z,846.49
2017-04-03T00:49:55.526Z,846.53
2017-04-03T00:49:59.956Z,846.54
2017-04-03T00:50:04.266Z,846.54
2017-04-03T00:50:08.575Z,846.54
2017-04-03T00:50:12.652Z,846.54
2017-04-03T00:50:17.001Z,846.56
2017-04-03T00:50:21.426Z,846.54
2017-04-03T00:50:25.737Z,846.53
2017-04-03T00:50:29.926Z,846.54
2017-04-03T00:50:34.363Z,846.53
2017-04-03T00:50:38.786Z,846.53
2017-04-03T00:50:43.097Z,846.55
2017-04-03T00:50:47.414Z,846.55
2017-04-03T00:50:51.853Z,846.55
2017-04-03T00:50:56.281Z,846.53
2017-04-03T00:51:00.358Z,846.56
2017-04-03T00:51:04.920Z,846.57
2017-04-03T00:51:09.347Z,846.56
2017-04-03T00:51:13.770Z,846.57
2017-04-03T00:51:18.199Z,846.56
2017-04-03T00:51:22.628Z,846.53
2017-04-03T00:51:27.056Z,846.57
2017-04-03T00:51:31.496Z,846.54
2017-04-03T00:51:35.965Z,846.57
2017-04-03T00:51:40.277Z,846.56
2017-04-03T00:51:44.593Z,846.57
2017-04-03T00:51:48.904Z,846.56
2017-04-03T00:51:53.089Z,846.54
2017-04-03T00:51:57.441Z,846.51
2017-04-03T00:52:01.747Z,846.54
2017-04-03T00:52:06.263Z,846.53
2017-04-03T00:52:10.575Z,846.54
2017-04-03T00:52:15.004Z,846.52
2017-04-03T00:52:19.310Z,846.55
2017-04-03T00:52:23.619Z,846.58
2017-04-03T00:52:27.938Z,846.58
2017-04-03T00:52:32.133Z,846.55
2017-04-03T00:52:36.553Z,846.57
2017-04-03T00:52:40.977Z,846.56
2017-04-03T00:52:45.400Z,846.57
2017-04-03T00:52:49.599Z,846.61
2017-04-03T00:52:54.027Z,846.59
2017-04-03T00:52:58.455Z,846.57
2017-04-03T00:53:02.893Z,846.59
2017-04-03T00:53:07.317Z,846.6
2017-04-03T00:53:11.747Z,846.57
2017-04-03T00:53:16.109Z,846.6
2017-04-03T00:53:20.415Z,846.62
2017-04-03T00:53:24.726Z,846.6
2017-04-03T00:53:29.175Z,846.59
2017-04-03T00:53:33.481Z,846.6
2017-04-03T00:53:37.917Z,846.6
2017-04-03T00:53:42.384Z,846.62
2017-04-03T00:53:46.812Z,846.6
2017-04-03T00:53:51.238Z,846.62
2017-04-03T00:53:55.666Z,846.64
2017-04-03T00:54:00.098Z,846.6
2017-04-03T00:54:04.525Z,846.58
2017-04-03T00:54:08.951Z,846.59
2017-04-03T00:54:13.259Z,846.61
2017-04-03T00:54:17.574Z,846.62
2017-04-03T00:54:21.997Z,846.63
2017-04-03T00:54:26.187Z,846.63
2017-04-03T00:54:30.617Z,846.59
2017-04-03T00:54:34.936Z,846.57
2017-04-03T00:54:39.363Z,846.66